createdAt,value
2018-04-28T00:01:39.797Z,8.77
2018-04-28T00:04:14.138Z,4.93
2018-04-28T00:06:48.709Z,5.70
2018-04-28T00:09:22.941Z,4.70
2018-04-28T00:11:57.616Z,6.10
2018-04-28T00:14:32.181Z,5.93
2018-04-28T00:17:07.959Z,7.10
2018-04-28T00:19:41.985Z,7.37
2018-04-28T00:22:20.809Z,6.93
2018-04-28T00:24:59.357Z,5.27
2018-04-28T00:27:37.620Z,6.93
2018-04-28T00:30:16.203Z,6.27
2018-04-28T00:32:50.588Z,5.40
2018-04-28T00:35:33.175Z,4.43
2018-04-28T00:38:07.197Z,4.00
2018-04-28T00:40:42.566Z,7.07
2018-04-28T00:43:19.236Z,5.40
2018-04-28T00:45:57.577Z,7.33
2018-04-28T00:48:32.497Z,10.07
2018-04-28T00:51:24.573Z,4.93
2018-04-28T00:54:03.987Z,6.00
2018-04-28T00:56:38.238Z,9.43
2018-04-28T00:59:18.853Z,8.17
2018-04-28T01:02:08.128Z,9.17
2018-04-28T01:04:44.585Z,6.33
2018-04-28T01:07:22.791Z,5.20
2018-04-28T01:10:00.786Z,8.80
2018-04-28T01:12:38.907Z,6.43
2018-04-28T01:15:30.558Z,6.37
2018-04-28T01:18:11.322Z,6.00
2018-04-28T01:23:44.837Z,5.07
2018-04-28T01:29:30.741Z,5.17
2018-04-28T01:32:06.994Z,5.17
2018-04-28T01:34:44.717Z,6.57
2018-04-28T01:37:23.625Z,5.87
2018-04-28T01:40:12.435Z,6.70
2018-04-28T01:42:53.754Z,7.40
2018-04-28T01:45:30.406Z,4.60
2018-04-28T01:51:03.641Z,5.40
2018-04-28T01:56:41.837Z,7.70
2018-04-28T01:59:15.656Z,5.70
2018-04-28T02:01:50.393Z,5.00
2018-04-28T02:04:24.493Z,7.20
2018-04-28T02:07:05.742Z,5.50
2018-04-28T02:09:41.142Z,6.70
2018-04-28T02:12:21.228Z,6.17
2018-04-28T02:15:00.940Z,7.73
2018-04-28T02:17:41.173Z,5.47
2018-04-28T02:20:23.233Z,7.53
2018-04-28T02:23:05.038Z,6.10
2018-04-28T02:25:47.301Z,5.63
2018-04-28T02:28:37.747Z,9.90
2018-04-28T02:31:11.610Z,5.40
2018-04-28T02:33:47.250Z,10.03
2018-04-28T02:36:25.782Z,5.73
2018-04-28T02:39:00.338Z,5.90
2018-04-28T02:44:38.133Z,5.53
2018-04-28T02:47:17.273Z,6.57
2018-04-28T02:49:51.805Z,5.30
2018-04-28T02:52:40.482Z,5.40
2018-04-28T03:08:43.457Z,5.23
2018-04-28T03:11:19.719Z,4.77
2018-04-28T03:13:54.357Z,7.23
2018-04-28T03:16:32.124Z,7.33
2018-04-28T03:19:12.461Z,15.07
2018-04-28T03:21:48.076Z,6.13
2018-04-28T03:37:59.641Z,8.33
2018-04-28T03:40:35.037Z,7.07
2018-04-28T03:56:39.689Z,5.10
2018-04-28T03:59:25.781Z,5.63
2018-04-28T04:02:12.165Z,5.90
2018-04-28T04:18:41.697Z,6.70
2018-04-28T04:21:19.245Z,10.30
2018-04-28T04:24:05.769Z,6.87
2018-04-28T04:26:45.309Z,6.77
2018-04-28T04:29:44.121Z,6.70
2018-04-28T04:32:19.853Z,7.60
2018-04-28T04:34:58.525Z,10.70
2018-04-28T04:37:34.631Z,6.93
2018-04-28T04:40:35.865Z,6.63
2018-04-28T04:43:19.021Z,6.90
2018-04-28T04:46:04.868Z,6.10
2018-04-28T05:02:08.093Z,7.37
2018-04-28T05:18:18.702Z,7.13
2018-04-28T05:20:58.825Z,8.43
2018-04-28T05:37:30.001Z,7.33
2018-04-28T05:40:06.986Z,9.80
2018-04-28T05:42:47.651Z,7.87
2018-04-28T05:45:36.541Z,7.43
2018-04-28T05:48:18.415Z,7.13
2018-04-28T05:51:03.641Z,6.23
2018-04-28T05:53:54.292Z,7.97
2018-04-28T05:56:40.223Z,6.77
2018-04-28T06:13:01.258Z,5.93
2018-04-28T06:15:38.609Z,4.07
2018-04-28T06:18:16.446Z,4.60
2018-04-28T06:20:50.530Z,8.30
2018-04-28T06:23:24.829Z,5.90
2018-04-28T06:25:59.458Z,13.83
2018-04-28T06:28:33.877Z,6.33
2018-04-28T06:31:08.657Z,8.73
2018-04-28T06:33:43.261Z,6.80
2018-04-28T06:36:17.858Z,7.63
2018-04-28T06:38:52.405Z,6.20
2018-04-28T06:41:27.021Z,4.93
2018-04-28T06:44:02.073Z,6.00
2018-04-28T06:46:36.359Z,7.30
2018-04-28T06:49:10.995Z,5.40
2018-04-28T06:51:45.597Z,5.30
2018-04-28T06:54:20.637Z,10.70
2018-04-28T06:56:55.086Z,6.67
2018-04-28T06:59:29.864Z,5.43
2018-04-28T07:02:04.431Z,6.33
2018-04-28T07:04:38.937Z,9.53
2018-04-28T07:07:13.517Z,5.23
2018-04-28T07:09:48.018Z,4.30
2018-04-28T07:12:22.730Z,4.63
2018-04-28T07:14:57.161Z,5.07
2018-04-28T07:17:31.974Z,9.20
2018-04-28T07:20:06.473Z,11.60
2018-04-28T07:22:41.056Z,7.00
2018-04-28T07:25:15.660Z,4.73
2018-04-28T07:27:50.349Z,8.67
2018-04-28T07:30:25.177Z,4.30
2018-04-28T07:32:59.937Z,6.50
2018-04-28T07:35:34.697Z,7.57
2018-04-28T07:38:09.289Z,3.23
2018-04-28T07:40:44.006Z,7.80
2018-04-28T07:43:18.681Z,5.53
2018-04-28T07:45:53.610Z,3.40
2018-04-28T07:48:27.929Z,5.60
2018-04-28T07:51:02.937Z,4.87
2018-04-28T07:53:37.726Z,2.40
2018-04-28T07:56:11.953Z,6.40
2018-04-28T07:58:47.257Z,13.57
2018-04-28T08:01:21.784Z,4.60
2018-04-28T08:03:56.385Z,4.97
2018-04-28T08:06:30.901Z,4.93
2018-04-28T08:09:05.389Z,8.77
2018-04-28T08:11:40.285Z,6.17
2018-04-28T08:14:15.085Z,5.33
2018-04-28T08:16:49.829Z,5.37
2018-04-28T08:19:24.453Z,7.87
2018-04-28T08:21:58.993Z,8.40
2018-04-28T08:24:33.897Z,6.43
2018-04-28T08:27:08.612Z,6.23
2018-04-28T08:29:43.213Z,6.70
2018-04-28T08:32:18.097Z,5.10
2018-04-28T08:34:52.825Z,11.90
2018-04-28T08:37:27.606Z,10.50
2018-04-28T08:40:02.277Z,6.70
2018-04-28T08:42:36.953Z,5.33
2018-04-28T08:45:11.861Z,6.57
2018-04-28T08:47:46.553Z,5.73
2018-04-28T08:50:21.065Z,7.70
2018-04-28T08:52:55.784Z,8.20
2018-04-28T08:55:30.539Z,4.87
2018-04-28T08:58:05.373Z,4.57
2018-04-28T09:00:40.605Z,6.97
2018-04-28T09:03:15.269Z,5.63
2018-04-28T09:05:50.672Z,9.13
2018-04-28T09:08:25.133Z,4.93
2018-04-28T09:10:59.937Z,8.73
2018-04-28T09:13:34.691Z,7.53
2018-04-28T09:16:09.433Z,7.73
2018-04-28T09:18:44.008Z,4.80
2018-04-28T09:21:18.999Z,13.70
2018-04-28T09:23:53.906Z,8.03
2018-04-28T09:26:28.857Z,6.00
2018-04-28T09:29:03.565Z,5.77
2018-04-28T09:31:38.321Z,6.33
2018-04-28T09:34:13.241Z,9.63
2018-04-28T09:36:48.761Z,7.30
2018-04-28T09:39:23.528Z,7.83
2018-04-28T09:41:58.385Z,9.47
2018-04-28T09:44:33.160Z,7.90
2018-04-28T09:47:11.057Z,7.90
2018-04-28T09:49:46.114Z,6.77
2018-04-28T09:52:21.082Z,7.97
2018-04-28T09:54:55.878Z,10.37
2018-04-28T09:57:30.801Z,10.20
2018-04-28T10:00:16.529Z,8.97
2018-04-28T10:02:51.301Z,7.00
2018-04-28T10:05:26.561Z,10.30
2018-04-28T10:08:01.444Z,7.97
2018-04-28T10:10:36.551Z,13.17
2018-04-28T10:13:11.666Z,8.40
2018-04-28T10:15:46.713Z,7.00
2018-04-28T10:18:21.648Z,8.07
2018-04-28T10:20:56.580Z,8.77
2018-04-28T10:23:31.422Z,8.70
2018-04-28T10:26:05.909Z,7.60
2018-04-28T10:28:40.754Z,5.77
2018-04-28T10:31:15.465Z,7.23
2018-04-28T10:33:50.041Z,6.03
2018-04-28T10:36:24.850Z,9.47
2018-04-28T10:38:59.556Z,7.80
2018-04-28T10:41:34.476Z,6.40
2018-04-28T10:44:09.250Z,8.00
2018-04-28T10:46:44.102Z,6.20
2018-04-28T10:49:18.697Z,10.93
2018-04-28T10:51:53.312Z,4.60
2018-04-28T10:54:28.006Z,9.53
2018-04-28T10:57:02.781Z,9.43
2018-04-28T10:59:37.492Z,5.00
2018-04-28T11:02:12.538Z,10.23
2018-04-28T11:04:47.375Z,4.10
2018-04-28T11:07:22.220Z,7.17
2018-04-28T11:09:56.925Z,5.10
2018-04-28T11:12:31.767Z,8.00
2018-04-28T11:15:06.741Z,6.30
2018-04-28T11:17:41.518Z,3.60
2018-04-28T11:20:16.362Z,13.53
2018-04-28T11:22:51.280Z,4.73
2018-04-28T11:25:26.408Z,4.73
2018-04-28T11:28:01.253Z,3.00
2018-04-28T11:30:35.656Z,5.53
2018-04-28T11:33:10.708Z,7.30
2018-04-28T11:35:45.645Z,7.07
2018-04-28T11:38:20.542Z,5.80
2018-04-28T11:40:55.162Z,6.50
2018-04-28T11:43:30.241Z,5.20
2018-04-28T11:46:05.024Z,5.23
2018-04-28T11:48:40.175Z,7.60
2018-04-28T11:51:14.917Z,6.70
2018-04-28T11:53:49.763Z,4.93
2018-04-28T11:56:24.474Z,8.73
2018-04-28T11:58:59.434Z,4.97
2018-04-28T12:01:34.082Z,5.07
2018-04-28T12:04:09.250Z,6.27
2018-04-28T12:06:44.346Z,5.43
2018-04-28T12:09:19.072Z,4.60
2018-04-28T12:11:53.663Z,7.33
2018-04-28T12:14:28.337Z,5.30
2018-04-28T12:17:03.019Z,5.40
2018-04-28T12:19:37.712Z,6.80
2018-04-28T12:22:12.502Z,5.77
2018-04-28T12:24:47.062Z,7.77
2018-04-28T12:27:22.065Z,7.43
2018-04-28T12:29:56.897Z,7.47
2018-04-28T12:32:31.523Z,6.13
2018-04-28T12:35:06.337Z,5.77
2018-04-28T12:37:40.994Z,8.33
2018-04-28T12:40:15.597Z,6.77
2018-04-28T12:42:50.370Z,6.43
2018-04-28T12:45:25.054Z,5.90
2018-04-28T12:47:59.485Z,10.30
2018-04-28T12:50:34.272Z,6.67
2018-04-28T12:53:08.904Z,6.53
2018-04-28T12:55:43.546Z,6.10
2018-04-28T12:58:18.203Z,6.57
2018-04-28T13:00:52.815Z,5.93
2018-04-28T13:03:27.517Z,5.73
2018-04-28T13:06:02.167Z,7.33
2018-04-28T13:08:36.722Z,6.23
2018-04-28T13:11:11.438Z,5.60
2018-04-28T13:13:45.922Z,5.40
2018-04-28T13:16:20.446Z,5.60
2018-04-28T13:19:04.411Z,6.00
2018-04-28T13:21:39.632Z,6.80
2018-04-28T13:24:14.272Z,5.30
2018-04-28T13:26:48.917Z,5.87
2018-04-28T13:29:23.613Z,5.57
2018-04-28T13:31:58.255Z,9.00
2018-04-28T13:34:32.973Z,6.57
2018-04-28T13:37:07.654Z,5.50
2018-04-28T13:39:42.335Z,6.50
2018-04-28T13:42:16.930Z,10.30
2018-04-28T13:44:51.651Z,5.90
2018-04-28T13:47:26.302Z,5.80
2018-04-28T13:50:00.909Z,5.90
2018-04-28T13:52:35.516Z,5.93
2018-04-28T13:55:09.829Z,6.70
2018-04-28T13:57:44.752Z,6.73
2018-04-28T14:00:19.464Z,7.97
2018-04-28T14:02:54.172Z,7.70
2018-04-28T14:05:28.959Z,6.97
2018-04-28T14:08:03.224Z,8.10
2018-04-28T14:10:37.930Z,8.10
2018-04-28T14:13:12.622Z,8.80
2018-04-28T14:15:47.230Z,7.83
2018-04-28T14:18:21.902Z,7.40
2018-04-28T14:20:56.158Z,7.83
2018-04-28T14:23:30.847Z,6.20
2018-04-28T14:26:05.315Z,6.73
2018-04-28T14:28:39.892Z,7.73
2018-04-28T14:31:14.786Z,8.30
2018-04-28T14:33:49.375Z,8.70
2018-04-28T14:36:24.058Z,9.07
2018-04-28T14:38:58.829Z,9.07
2018-04-28T14:41:33.341Z,8.33
2018-04-28T14:44:08.042Z,7.27
2018-04-28T14:46:42.659Z,7.77
2018-04-28T14:49:17.250Z,9.60
2018-04-28T14:51:51.882Z,7.90
2018-04-28T14:54:26.660Z,8.40
2018-04-28T14:57:01.371Z,8.43
2018-04-28T14:59:35.985Z,7.43
2018-04-28T15:02:10.682Z,10.70
2018-04-28T15:04:45.303Z,7.43
2018-04-28T15:07:20.081Z,8.97
2018-04-28T15:09:54.831Z,8.70
2018-04-28T15:12:30.315Z,6.80
2018-04-28T15:15:04.581Z,9.07
2018-04-28T15:17:39.276Z,7.67
2018-04-28T15:20:13.891Z,7.40
2018-04-28T15:22:48.795Z,8.80
2018-04-28T15:25:23.529Z,9.00
2018-04-28T15:27:58.235Z,7.30
2018-04-28T15:30:32.862Z,6.97
2018-04-28T15:33:07.699Z,7.10
2018-04-28T15:35:42.490Z,7.90
2018-04-28T15:38:18.018Z,10.40
2018-04-28T15:40:52.718Z,7.73
2018-04-28T15:43:27.306Z,8.60
2018-04-28T15:46:01.938Z,8.80
2018-04-28T15:48:36.654Z,7.20
2018-04-28T15:51:11.054Z,7.83
2018-04-28T15:53:45.702Z,8.57
2018-04-28T15:56:20.590Z,10.57
2018-04-28T15:58:55.410Z,7.97
2018-04-28T16:01:29.481Z,8.00
2018-04-28T16:04:04.394Z,9.13
2018-04-28T16:06:38.907Z,12.50
2018-04-28T16:09:13.673Z,9.53
2018-04-28T16:11:49.038Z,8.47
2018-04-28T16:14:23.634Z,8.47
2018-04-28T16:16:58.222Z,8.63
2018-04-28T16:19:32.822Z,9.30
2018-04-28T16:22:07.434Z,10.73
2018-04-28T16:24:42.357Z,7.60
2018-04-28T16:27:16.989Z,10.93
2018-04-28T16:29:51.730Z,9.00
2018-04-28T16:32:26.450Z,11.50
2018-04-28T16:35:01.070Z,14.70
2018-04-28T16:37:35.569Z,9.20
2018-04-28T16:40:10.232Z,9.07
2018-04-28T16:42:44.841Z,8.80
2018-04-28T16:45:19.620Z,8.50
2018-04-28T16:47:54.962Z,6.27
2018-04-28T16:50:29.638Z,9.37
2018-04-28T16:53:03.918Z,8.53
2018-04-28T16:55:38.818Z,6.97
2018-04-28T16:58:13.340Z,8.23
2018-04-28T17:00:48.022Z,8.93
2018-04-28T17:03:22.738Z,6.90
2018-04-28T17:05:57.338Z,6.87
2018-04-28T17:08:32.067Z,6.60
2018-04-28T17:11:06.788Z,6.47
2018-04-28T17:13:41.510Z,7.13
2018-04-28T17:16:16.153Z,6.57
2018-04-28T17:18:50.860Z,6.67
2018-04-28T17:21:25.591Z,7.03
2018-04-28T17:24:00.106Z,7.30
2018-04-28T17:26:34.818Z,6.60
2018-04-28T17:29:09.436Z,6.30
2018-04-28T17:31:43.958Z,6.63
2018-04-28T17:34:18.683Z,7.13
2018-04-28T17:36:53.279Z,8.40
2018-04-28T17:39:28.011Z,8.40
2018-04-28T17:42:02.612Z,9.00
2018-04-28T17:44:37.457Z,6.37
2018-04-28T17:47:11.995Z,6.83
2018-04-28T17:49:46.896Z,7.47
2018-04-28T17:52:21.579Z,6.13
2018-04-28T17:54:56.285Z,6.53
2018-04-28T17:57:30.736Z,5.80
2018-04-28T18:00:05.110Z,6.53
2018-04-28T18:02:40.055Z,7.70
2018-04-28T18:05:14.906Z,6.10
2018-04-28T18:07:50.260Z,10.50
2018-04-28T18:10:24.766Z,7.20
2018-04-28T18:12:59.511Z,6.70
2018-04-28T18:15:34.302Z,8.17
2018-04-28T18:18:09.134Z,7.40
2018-04-28T18:20:43.886Z,6.97
2018-04-28T18:23:18.743Z,8.40
2018-04-28T18:25:53.170Z,11.60
2018-04-28T18:28:27.523Z,11.80
2018-04-28T18:31:02.533Z,12.10
2018-04-28T18:33:37.236Z,6.60
2018-04-28T18:36:11.961Z,7.40
2018-04-28T18:38:46.310Z,9.00
2018-04-28T18:41:21.047Z,17.43
2018-04-28T18:43:55.767Z,17.90
2018-04-28T18:46:30.665Z,17.90
2018-04-28T18:49:05.342Z,18.10
2018-04-28T18:51:40.244Z,11.20
2018-04-28T18:54:14.938Z,8.83
2018-04-28T18:56:49.437Z,7.80
2018-04-28T18:59:24.226Z,6.70
2018-04-28T19:01:58.946Z,7.67
2018-04-28T19:04:33.461Z,7.20
2018-04-28T19:07:08.061Z,7.13
2018-04-28T19:09:42.895Z,6.80
2018-04-28T19:12:17.603Z,9.13
2018-04-28T19:14:52.231Z,9.40
2018-04-28T19:17:26.930Z,7.20
2018-04-28T19:20:01.554Z,7.40
2018-04-28T19:22:36.146Z,12.60
2018-04-28T19:25:10.733Z,5.83
2018-04-28T19:27:45.417Z,6.90
2018-04-28T19:30:20.094Z,5.00
2018-04-28T19:32:54.648Z,7.93
2018-04-28T19:35:29.394Z,23.00
2018-04-28T19:38:04.192Z,13.93
2018-04-28T19:40:38.822Z,13.47
2018-04-28T19:43:13.542Z,8.27
2018-04-28T19:45:48.370Z,8.17
2018-04-28T19:48:22.750Z,9.20
2018-04-28T19:50:57.215Z,10.23
2018-04-28T19:53:32.102Z,7.20
2018-04-28T19:56:06.755Z,6.80
2018-04-28T19:58:41.318Z,7.93
2018-04-28T20:01:16.020Z,7.20
2018-04-28T20:03:50.726Z,7.00
2018-04-28T20:06:25.446Z,7.10
2018-04-28T20:08:59.618Z,5.97
2018-04-28T20:11:34.647Z,6.13
2018-04-28T20:14:09.266Z,7.50
2018-04-28T20:16:44.604Z,5.87
2018-04-28T20:19:19.694Z,7.40
2018-04-28T20:35:21.157Z,6.50
2018-04-28T20:37:56.433Z,7.43
2018-04-28T20:40:31.058Z,6.60
2018-04-28T20:43:05.354Z,6.60
2018-04-28T20:45:40.168Z,6.83
2018-04-28T20:48:14.820Z,7.33
2018-04-28T20:50:49.585Z,9.23
2018-04-28T20:53:24.292Z,8.30
2018-04-28T20:55:59.514Z,7.43
2018-04-28T20:58:34.759Z,9.53
2018-04-28T21:01:09.369Z,8.20
2018-04-28T21:03:44.174Z,8.17
2018-04-28T21:06:19.464Z,11.07
2018-04-28T21:08:53.861Z,7.80
2018-04-28T21:11:28.814Z,8.43
2018-04-28T21:14:04.173Z,9.70
2018-04-28T21:16:38.629Z,9.50
2018-04-28T21:19:14.033Z,9.37
2018-04-28T21:21:49.200Z,9.83
2018-04-28T21:24:24.376Z,9.13
2018-04-28T21:26:58.945Z,11.80
2018-04-28T21:29:34.157Z,9.30
2018-04-28T21:32:08.688Z,9.53
2018-04-28T21:34:43.177Z,9.43
2018-04-28T21:37:18.393Z,11.70
2018-04-28T21:39:53.538Z,10.23
2018-04-28T21:42:28.825Z,10.50
2018-04-28T21:45:03.273Z,11.23
2018-04-28T21:47:38.821Z,12.97
2018-04-28T21:50:13.935Z,12.03
2018-04-28T21:52:49.009Z,12.90
2018-04-28T21:55:24.089Z,13.63
2018-04-28T21:57:59.119Z,12.63
2018-04-28T22:00:34.049Z,13.00
2018-04-28T22:03:09.051Z,13.67
2018-04-28T22:05:44.265Z,11.87
2018-04-28T22:08:19.193Z,11.97
2018-04-28T22:10:54.141Z,13.23
2018-04-28T22:13:29.053Z,11.17
2018-04-28T22:16:04.025Z,12.23
2018-04-28T22:18:38.960Z,12.97
2018-04-28T22:21:13.881Z,13.20
2018-04-28T22:23:48.962Z,12.67
2018-04-28T22:26:23.637Z,12.83
2018-04-28T22:28:58.173Z,13.90
2018-04-28T22:31:33.273Z,12.47
2018-04-28T22:34:08.329Z,12.47
2018-04-28T22:36:43.331Z,11.20
2018-04-28T22:39:18.269Z,12.07
2018-04-28T22:41:52.988Z,11.80
2018-04-28T22:44:27.927Z,11.77
2018-04-28T22:47:02.791Z,11.30
2018-04-28T22:49:37.977Z,13.03
2018-04-28T22:52:12.951Z,13.47
2018-04-28T22:54:47.734Z,12.33
2018-04-28T22:57:22.585Z,12.47
2018-04-28T22:59:57.604Z,15.00
2018-04-28T23:02:32.713Z,14.23
2018-04-28T23:05:07.190Z,14.03
2018-04-28T23:07:42.170Z,13.87
2018-04-28T23:10:17.411Z,13.90
2018-04-28T23:12:52.430Z,15.33
2018-04-28T23:15:27.695Z,14.23
2018-04-28T23:18:02.613Z,14.23
2018-04-28T23:20:37.423Z,15.03
2018-04-28T23:23:12.593Z,14.53
2018-04-28T23:25:47.477Z,16.77
2018-04-28T23:28:22.653Z,14.80
2018-04-28T23:30:57.632Z,14.20
2018-04-28T23:33:32.733Z,13.90
2018-04-28T23:36:07.481Z,13.43
2018-04-28T23:38:42.285Z,15.70
2018-04-28T23:41:17.628Z,15.07
2018-04-28T23:43:52.566Z,14.63
2018-04-28T23:46:27.689Z,16.20
2018-04-28T23:49:02.845Z,14.87
2018-04-28T23:51:37.976Z,15.87
2018-04-28T23:54:12.837Z,14.83
2018-04-28T23:56:47.954Z,15.67
2018-04-28T23:59:22.988Z,14.73
